createdAt,value
2019-02-28T00:00:13.484Z,8.00
2019-02-28T00:01:13.499Z,8.00
2019-02-28T00:02:13.546Z,8.00
2019-02-28T00:03:13.452Z,8.00
2019-02-28T00:04:13.441Z,8.00
2019-02-28T00:05:13.430Z,8.00
2019-02-28T00:06:13.422Z,8.00
2019-02-28T00:07:17.612Z,8.00
2019-02-28T00:08:13.417Z,8.00
2019-02-28T00:09:13.387Z,8.00
2019-02-28T00:10:13.380Z,8.00
2019-02-28T00:11:13.368Z,8.00
2019-02-28T00:12:14.279Z,8.00
2019-02-28T00:13:25.540Z,8.00
2019-02-28T00:14:13.340Z,8.00
2019-02-28T00:15:13.323Z,8.00
2019-02-28T00:16:13.318Z,8.00
2019-02-28T00:17:13.301Z,8.00
2019-02-28T00:18:15.208Z,8.00
2019-02-28T00:19:13.449Z,8.00
2019-02-28T00:20:13.273Z,8.00
2019-02-28T00:21:13.268Z,8.00
2019-02-28T00:22:14.720Z,8.00
2019-02-28T00:23:13.240Z,8.00
2019-02-28T00:24:13.225Z,8.00
2019-02-28T00:25:13.255Z,8.00
2019-02-28T00:26:13.206Z,8.00
2019-02-28T00:27:13.190Z,8.00
2019-02-28T00:28:13.182Z,8.00
2019-02-28T00:29:13.169Z,8.00
2019-02-28T00:30:13.168Z,8.00
2019-02-28T00:31:15.257Z,8.00
2019-02-28T00:32:13.152Z,8.00
2019-02-28T00:33:13.136Z,8.00
2019-02-28T00:34:13.119Z,8.00
2019-02-28T00:35:14.027Z,8.00
2019-02-28T00:36:13.099Z,8.00
2019-02-28T00:37:13.122Z,8.00
2019-02-28T00:38:13.082Z,8.00
2019-02-28T00:39:13.068Z,8.00
2019-02-28T00:40:13.054Z,8.00
2019-02-28T00:41:13.048Z,8.00
2019-02-28T00:42:17.409Z,8.00
2019-02-28T00:43:13.061Z,8.00
2019-02-28T00:44:23.073Z,8.00
2019-02-28T00:45:12.998Z,8.00
2019-02-28T00:46:12.987Z,8.00
2019-02-28T00:47:12.979Z,8.00
2019-02-28T00:48:12.965Z,8.00
2019-02-28T00:49:13.001Z,8.00
2019-02-28T00:50:12.946Z,8.00
2019-02-28T00:51:12.929Z,8.00
2019-02-28T00:52:12.931Z,8.00
2019-02-28T00:53:12.907Z,8.00
2019-02-28T00:54:12.905Z,8.00
2019-02-28T00:55:14.547Z,8.00
2019-02-28T00:56:12.878Z,8.00
2019-02-28T00:57:12.883Z,8.00
2019-02-28T00:58:12.856Z,8.00
2019-02-28T00:59:12.852Z,8.00
2019-02-28T01:00:12.834Z,8.00
2019-02-28T01:01:12.861Z,8.00
2019-02-28T01:02:12.821Z,8.00
2019-02-28T01:03:12.808Z,8.00
2019-02-28T01:04:12.791Z,8.00
2019-02-28T01:05:12.783Z,8.00
2019-02-28T01:06:12.780Z,8.00
2019-02-28T01:07:13.263Z,8.00
2019-02-28T01:08:12.835Z,8.00
2019-02-28T01:09:12.745Z,8.00
2019-02-28T01:10:12.723Z,8.00
2019-02-28T01:11:13.304Z,8.00
2019-02-28T01:12:18.894Z,8.00
2019-02-28T01:13:13.698Z,8.00
2019-02-28T01:14:12.683Z,8.00
2019-02-28T01:15:24.105Z,8.00
2019-02-28T01:16:12.659Z,8.00
2019-02-28T01:17:12.650Z,8.00
2019-02-28T01:18:12.679Z,8.00
2019-02-28T01:19:12.628Z,8.00
2019-02-28T01:20:16.105Z,8.00
2019-02-28T01:21:12.616Z,8.00
2019-02-28T01:22:12.594Z,8.00
2019-02-28T01:23:12.585Z,8.00
2019-02-28T01:24:12.618Z,8.00
2019-02-28T01:25:12.574Z,8.00
2019-02-28T01:26:12.556Z,8.00
2019-02-28T01:27:12.544Z,8.00
2019-02-28T01:28:12.533Z,8.00
2019-02-28T01:29:12.525Z,8.00
2019-02-28T01:30:12.550Z,8.00
2019-02-28T01:31:12.504Z,8.00
2019-02-28T01:32:15.484Z,8.00
2019-02-28T01:33:12.474Z,8.00
2019-02-28T01:34:12.469Z,8.00
2019-02-28T01:35:12.465Z,8.00
2019-02-28T01:36:15.496Z,8.00
2019-02-28T01:37:12.430Z,8.00
2019-02-28T01:38:12.420Z,8.00
2019-02-28T01:39:12.412Z,8.00
2019-02-28T01:40:12.405Z,8.00
2019-02-28T01:41:12.393Z,8.00
2019-02-28T01:42:12.419Z,8.00
2019-02-28T01:43:12.372Z,8.00
2019-02-28T01:44:12.360Z,8.00
2019-02-28T01:45:12.346Z,8.00
2019-02-28T01:46:22.619Z,8.00
2019-02-28T01:47:12.323Z,8.00
2019-02-28T01:48:12.352Z,8.00
2019-02-28T01:49:12.304Z,8.00
2019-02-28T01:50:12.294Z,8.00
2019-02-28T01:51:12.285Z,8.00
2019-02-28T01:52:12.271Z,8.00
2019-02-28T01:53:12.262Z,8.00
2019-02-28T01:54:12.257Z,8.00
2019-02-28T01:55:12.242Z,8.00
2019-02-28T01:56:12.230Z,8.00
2019-02-28T01:57:12.221Z,8.00
2019-02-28T01:58:16.583Z,8.00
2019-02-28T01:59:12.231Z,8.00
2019-02-28T02:00:12.181Z,8.00
2019-02-28T02:01:12.172Z,8.00
2019-02-28T02:02:12.166Z,8.00
2019-02-28T02:03:12.150Z,8.00
2019-02-28T02:04:13.136Z,8.00
2019-02-28T02:05:12.164Z,8.00
2019-02-28T02:06:12.118Z,8.00
2019-02-28T02:07:12.106Z,8.00
2019-02-28T02:08:12.097Z,8.00
2019-02-28T02:09:12.090Z,8.00
2019-02-28T02:10:12.079Z,8.00
2019-02-28T02:11:12.105Z,8.00
2019-02-28T02:12:12.057Z,8.00
2019-02-28T02:13:12.042Z,8.00
2019-02-28T02:14:12.039Z,8.00
2019-02-28T02:15:12.029Z,8.00
2019-02-28T02:16:12.012Z,8.00
2019-02-28T02:17:23.108Z,8.00
2019-02-28T02:18:11.986Z,8.00
2019-02-28T02:19:17.525Z,8.00
2019-02-28T02:20:12.968Z,8.00
2019-02-28T02:21:11.969Z,8.00
2019-02-28T02:22:11.943Z,8.00
2019-02-28T02:23:11.940Z,8.00
2019-02-28T02:24:11.932Z,8.00
2019-02-28T02:25:11.920Z,8.00
2019-02-28T02:26:11.957Z,8.00
2019-02-28T02:27:11.895Z,8.00
2019-02-28T02:28:11.925Z,8.00
2019-02-28T02:29:11.875Z,8.00
2019-02-28T02:30:15.284Z,8.00
2019-02-28T02:31:11.870Z,8.00
2019-02-28T02:32:11.837Z,8.00
2019-02-28T02:33:14.594Z,8.00
2019-02-28T02:34:11.868Z,8.00
2019-02-28T02:35:11.808Z,8.00
2019-02-28T02:36:16.403Z,8.00
2019-02-28T02:37:12.783Z,8.00
2019-02-28T02:38:11.778Z,8.00
2019-02-28T02:39:15.982Z,8.00
2019-02-28T02:40:11.787Z,8.00
2019-02-28T02:41:11.741Z,8.00
2019-02-28T02:42:11.848Z,8.00
2019-02-28T02:43:11.721Z,8.00
2019-02-28T02:44:11.705Z,8.00
2019-02-28T02:45:11.698Z,8.00
2019-02-28T02:46:19.702Z,8.00
2019-02-28T02:47:12.673Z,8.00
2019-02-28T02:48:21.897Z,8.00
2019-02-28T02:49:18.500Z,8.00
2019-02-28T02:50:12.648Z,8.00
2019-02-28T02:51:12.645Z,8.00
2019-02-28T02:52:11.668Z,8.00
2019-02-28T02:53:11.613Z,8.00
2019-02-28T02:54:17.899Z,8.00
2019-02-28T02:55:12.600Z,8.00
2019-02-28T02:56:11.580Z,8.00
2019-02-28T02:57:13.996Z,8.00
2019-02-28T02:58:11.590Z,8.00
2019-02-28T02:59:11.548Z,8.00
2019-02-28T03:00:13.927Z,8.00
2019-02-28T03:01:11.538Z,8.00
2019-02-28T03:02:11.518Z,8.00
2019-02-28T03:03:11.514Z,8.00
2019-02-28T03:04:11.580Z,8.00
2019-02-28T03:05:11.485Z,8.00
2019-02-28T03:06:14.043Z,8.00
2019-02-28T03:07:11.458Z,8.00
2019-02-28T03:08:11.468Z,8.00
2019-02-28T03:09:11.441Z,8.00
2019-02-28T03:10:11.465Z,8.00
2019-02-28T03:11:11.434Z,8.00
2019-02-28T03:12:11.403Z,8.00
2019-02-28T03:13:11.394Z,8.00
2019-02-28T03:14:11.386Z,8.00
2019-02-28T03:15:11.411Z,8.00
2019-02-28T03:16:11.397Z,8.00
2019-02-28T03:17:12.168Z,8.00
2019-02-28T03:18:11.344Z,8.00
2019-02-28T03:19:21.941Z,8.00
2019-02-28T03:20:11.320Z,8.00
2019-02-28T03:21:15.216Z,8.00
2019-02-28T03:22:12.334Z,8.00
2019-02-28T03:23:11.289Z,8.00
2019-02-28T03:24:15.053Z,8.00
2019-02-28T03:25:12.264Z,8.00
2019-02-28T03:26:11.254Z,8.00
2019-02-28T03:27:11.243Z,8.00
2019-02-28T03:28:13.965Z,8.00
2019-02-28T03:29:11.222Z,8.00
2019-02-28T03:30:11.216Z,8.00
2019-02-28T03:31:14.662Z,8.00
2019-02-28T03:32:11.187Z,8.00
2019-02-28T03:33:23.863Z,8.00
2019-02-28T03:34:13.967Z,8.00
2019-02-28T03:35:11.168Z,8.00
2019-02-28T03:36:11.148Z,8.00
2019-02-28T03:37:11.137Z,8.00
2019-02-28T03:38:12.698Z,8.00
2019-02-28T03:39:11.115Z,8.00
2019-02-28T03:40:11.115Z,8.00
2019-02-28T03:41:16.056Z,8.00
2019-02-28T03:42:12.078Z,8.00
2019-02-28T03:43:11.121Z,8.00
2019-02-28T03:44:11.079Z,8.00
2019-02-28T03:45:11.066Z,8.00
2019-02-28T03:46:11.572Z,8.00
2019-02-28T03:47:11.027Z,8.00
2019-02-28T03:48:11.029Z,8.00
2019-02-28T03:49:12.499Z,8.00
2019-02-28T03:50:22.303Z,8.00
2019-02-28T03:51:10.989Z,8.00
2019-02-28T03:52:10.973Z,8.00
2019-02-28T03:53:10.975Z,8.00
2019-02-28T03:54:10.946Z,8.00
2019-02-28T03:55:11.009Z,8.00
2019-02-28T03:56:14.395Z,8.00
2019-02-28T03:57:10.938Z,8.00
2019-02-28T03:58:10.910Z,8.00
2019-02-28T03:59:18.465Z,8.00
2019-02-28T04:00:12.280Z,8.00
2019-02-28T04:01:10.875Z,8.00
2019-02-28T04:02:10.904Z,8.00
2019-02-28T04:03:10.853Z,8.00
2019-02-28T04:04:12.231Z,8.00
2019-02-28T04:05:10.838Z,8.00
2019-02-28T04:06:10.990Z,4.00
2019-02-28T04:07:15.395Z,8.00
2019-02-28T04:08:11.798Z,8.00
2019-02-28T04:09:10.791Z,12.00
2019-02-28T04:10:10.796Z,8.00
2019-02-28T04:11:10.796Z,8.00
2019-02-28T04:12:10.933Z,8.00
2019-02-28T04:13:10.749Z,8.00
2019-02-28T04:14:10.746Z,8.00
2019-02-28T04:15:11.333Z,8.00
2019-02-28T04:16:10.734Z,8.00
2019-02-28T04:17:10.708Z,8.00
2019-02-28T04:18:10.733Z,8.00
2019-02-28T04:19:10.685Z,8.00
2019-02-28T04:20:10.671Z,8.00
2019-02-28T04:21:21.884Z,8.00
2019-02-28T04:22:10.654Z,8.00
2019-02-28T04:23:10.637Z,8.00
2019-02-28T04:24:13.883Z,8.00
2019-02-28T04:25:10.621Z,8.00
2019-02-28T04:26:10.614Z,8.00
2019-02-28T04:27:10.592Z,8.00
2019-02-28T04:28:17.182Z,8.00
2019-02-28T04:29:11.608Z,8.00
2019-02-28T04:30:10.563Z,8.00
2019-02-28T04:31:10.555Z,12.00
2019-02-28T04:32:10.536Z,12.00
2019-02-28T04:33:10.527Z,8.00
2019-02-28T04:34:13.495Z,8.00
2019-02-28T04:35:10.530Z,8.00
2019-02-28T04:36:10.493Z,12.00
2019-02-28T04:37:10.488Z,12.00
2019-02-28T04:38:10.472Z,12.00
2019-02-28T04:39:10.469Z,12.00
2019-02-28T04:40:10.455Z,12.00
2019-02-28T04:41:10.476Z,12.00
2019-02-28T04:42:10.433Z,16.00
2019-02-28T04:43:10.861Z,16.00
2019-02-28T04:44:10.407Z,20.00
2019-02-28T04:45:10.398Z,20.00
2019-02-28T04:46:10.387Z,24.00
2019-02-28T04:47:10.416Z,24.00
2019-02-28T04:48:13.685Z,28.00
2019-02-28T04:49:10.355Z,32.00
2019-02-28T04:50:10.344Z,32.00
2019-02-28T04:51:10.339Z,36.00
2019-02-28T04:52:21.143Z,40.00
2019-02-28T04:53:10.312Z,44.00
2019-02-28T04:54:10.298Z,48.00
2019-02-28T04:55:10.292Z,56.00
2019-02-28T04:56:11.415Z,64.00
2019-02-28T04:57:10.270Z,68.00
2019-02-28T04:58:10.294Z,76.00
2019-02-28T04:59:10.254Z,84.00
2019-02-28T05:00:10.244Z,96.00
2019-02-28T05:01:12.342Z,112.00
2019-02-28T05:02:10.218Z,120.00
2019-02-28T05:03:10.206Z,136.00
2019-02-28T05:04:10.243Z,156.00
2019-02-28T05:05:12.823Z,172.00
2019-02-28T05:06:10.176Z,192.00
2019-02-28T05:07:10.165Z,216.00
2019-02-28T05:08:10.150Z,236.00
2019-02-28T05:09:10.654Z,260.00
2019-02-28T05:10:10.162Z,292.00
2019-02-28T05:11:10.119Z,316.00
2019-02-28T05:12:10.110Z,344.00
2019-02-28T05:13:11.404Z,360.00
2019-02-28T05:14:10.095Z,384.00
2019-02-28T05:15:10.080Z,408.00
2019-02-28T05:16:12.362Z,428.00
2019-02-28T05:17:10.050Z,448.00
2019-02-28T05:18:10.044Z,468.00
2019-02-28T05:19:10.037Z,488.00
2019-02-28T05:20:11.010Z,500.00
2019-02-28T05:21:10.013Z,520.00
2019-02-28T05:22:10.033Z,528.00
2019-02-28T05:23:22.107Z,544.00
2019-02-28T05:24:09.982Z,568.00
2019-02-28T05:25:09.962Z,588.00
2019-02-28T05:26:09.957Z,616.00
2019-02-28T05:27:09.950Z,640.00
2019-02-28T05:28:09.977Z,672.00
2019-02-28T05:29:11.901Z,692.00
2019-02-28T05:30:09.920Z,712.00
2019-02-28T05:31:09.898Z,736.00
2019-02-28T05:32:09.887Z,780.00
2019-02-28T05:33:09.887Z,824.00
2019-02-28T05:34:09.879Z,880.00
2019-02-28T05:35:09.868Z,936.00
2019-02-28T05:36:09.856Z,988.00
2019-02-28T05:37:12.605Z,1028.00
2019-02-28T05:38:09.824Z,1072.00
2019-02-28T05:39:09.833Z,1116.00
2019-02-28T05:40:09.809Z,1176.00
2019-02-28T05:41:12.216Z,1240.00
2019-02-28T05:42:10.784Z,1268.00
2019-02-28T05:43:09.774Z,1260.00
2019-02-28T05:44:09.770Z,1248.00
2019-02-28T05:45:11.352Z,1248.00
2019-02-28T05:46:09.741Z,1252.00
2019-02-28T05:47:09.725Z,1292.00
2019-02-28T05:48:09.720Z,1300.00
2019-02-28T05:49:09.864Z,1320.00
2019-02-28T05:50:15.242Z,1352.00
2019-02-28T05:51:10.683Z,1408.00
2019-02-28T05:52:09.680Z,1528.00
2019-02-28T05:53:10.066Z,1692.00
2019-02-28T05:54:19.781Z,1768.00
2019-02-28T05:55:09.644Z,1876.00
2019-02-28T05:56:09.673Z,1852.00
2019-02-28T05:57:09.622Z,1760.00
2019-02-28T05:58:09.607Z,1596.00
2019-02-28T05:59:09.600Z,1652.00
2019-02-28T06:00:09.586Z,1780.00
2019-02-28T06:01:11.833Z,2004.00
2019-02-28T06:02:09.615Z,2244.00
2019-02-28T06:03:09.553Z,2464.00
2019-02-28T06:04:09.545Z,2256.00
2019-02-28T06:05:12.039Z,1980.00
2019-02-28T06:06:09.528Z,1880.00
2019-02-28T06:07:09.526Z,1816.00
2019-02-28T06:08:09.539Z,1784.00
2019-02-28T06:09:10.342Z,1844.00
2019-02-28T06:10:09.489Z,1924.00
2019-02-28T06:11:09.472Z,2176.00
2019-02-28T06:12:10.130Z,2500.00
2019-02-28T06:13:09.445Z,2932.00
2019-02-28T06:14:09.475Z,3328.00
2019-02-28T06:15:09.434Z,3632.00
2019-02-28T06:16:12.332Z,3844.00
2019-02-28T06:17:09.407Z,4024.00
2019-02-28T06:18:09.394Z,4140.00
2019-02-28T06:19:09.391Z,4224.00
2019-02-28T06:20:09.550Z,4196.00
2019-02-28T06:21:10.217Z,4100.00
2019-02-28T06:22:09.350Z,3956.00
2019-02-28T06:23:10.156Z,3936.00
2019-02-28T06:24:12.745Z,3960.00
2019-02-28T06:25:23.618Z,3784.00
2019-02-28T06:26:09.303Z,3624.00
2019-02-28T06:27:09.296Z,3468.00
2019-02-28T06:28:09.289Z,3708.00
2019-02-28T06:29:09.274Z,3892.00
2019-02-28T06:30:09.502Z,3856.00
2019-02-28T06:31:09.292Z,4356.00
2019-02-28T06:32:09.242Z,4680.00
2019-02-28T06:33:09.231Z,4700.00
2019-02-28T06:34:09.298Z,5008.00
2019-02-28T06:35:09.211Z,5256.00
2019-02-28T06:36:09.199Z,5572.00
2019-02-28T06:37:09.227Z,5584.00
2019-02-28T06:38:09.172Z,5104.00
2019-02-28T06:39:09.188Z,5164.00
2019-02-28T06:40:09.153Z,5384.00
2019-02-28T06:41:09.148Z,5436.00
2019-02-28T06:42:11.821Z,5068.00
2019-02-28T06:43:09.175Z,4512.00
2019-02-28T06:44:09.108Z,4132.00
2019-02-28T06:45:09.102Z,3984.00
2019-02-28T06:46:09.394Z,4024.00
2019-02-28T06:47:11.266Z,3980.00
2019-02-28T06:48:09.066Z,3896.00
2019-02-28T06:49:09.098Z,3816.00
2019-02-28T06:50:09.047Z,3608.00
2019-02-28T06:51:09.035Z,3520.00
2019-02-28T06:52:09.031Z,3528.00
2019-02-28T06:53:09.012Z,3640.00
2019-02-28T06:54:09.011Z,3876.00
2019-02-28T06:55:09.030Z,4196.00
2019-02-28T06:56:22.177Z,4616.00
2019-02-28T06:57:08.970Z,5012.00
2019-02-28T06:58:08.961Z,5772.00
2019-02-28T06:59:08.953Z,6368.00
2019-02-28T07:00:10.434Z,6944.00
2019-02-28T07:01:09.075Z,6780.00
2019-02-28T07:02:09.052Z,7088.00
2019-02-28T07:03:08.908Z,7084.00
2019-02-28T07:04:11.492Z,6868.00
2019-02-28T07:05:09.885Z,7200.00
2019-02-28T07:06:08.877Z,7044.00
2019-02-28T07:07:10.184Z,6336.00
2019-02-28T07:08:08.852Z,6016.00
2019-02-28T07:09:08.845Z,5844.00
2019-02-28T07:10:09.605Z,5284.00
2019-02-28T07:11:08.822Z,4892.00
2019-02-28T07:12:08.839Z,4216.00
2019-02-28T07:13:08.799Z,3744.00
2019-02-28T07:14:12.825Z,3516.00
2019-02-28T07:15:08.772Z,3416.00
2019-02-28T07:16:08.776Z,3640.00
2019-02-28T07:17:10.799Z,4116.00
2019-02-28T07:18:08.792Z,4488.00
2019-02-28T07:19:08.735Z,5168.00
2019-02-28T07:20:09.657Z,5548.00
2019-02-28T07:21:08.769Z,5264.00
2019-02-28T07:22:08.699Z,5708.00
2019-02-28T07:23:08.694Z,5444.00
2019-02-28T07:24:08.718Z,6096.00
2019-02-28T07:25:09.398Z,6896.00
2019-02-28T07:26:08.659Z,7368.00
2019-02-28T07:27:19.649Z,7380.00
2019-02-28T07:28:08.638Z,7232.00
2019-02-28T07:29:11.991Z,7128.00
2019-02-28T07:30:08.619Z,7828.00
2019-02-28T07:31:08.601Z,7844.00
2019-02-28T07:32:08.594Z,10024.00
2019-02-28T07:33:10.589Z,11316.00
2019-02-28T07:34:08.566Z,11472.00
2019-02-28T07:35:08.610Z,10768.00
2019-02-28T07:36:09.312Z,12152.00
2019-02-28T07:37:08.539Z,12224.00
2019-02-28T07:38:08.538Z,13440.00
2019-02-28T07:39:08.534Z,12064.00
2019-02-28T07:40:08.507Z,13212.00
2019-02-28T07:41:08.671Z,13896.00
2019-02-28T07:42:08.497Z,13612.00
2019-02-28T07:43:12.109Z,12576.00
2019-02-28T07:44:21.215Z,11916.00
2019-02-28T07:45:09.465Z,12424.00
2019-02-28T07:46:08.902Z,12968.00
2019-02-28T07:47:08.471Z,13808.00
2019-02-28T07:48:08.441Z,12784.00
2019-02-28T07:49:08.455Z,12376.00
2019-02-28T07:50:10.761Z,13640.00
2019-02-28T07:51:08.395Z,15236.00
2019-02-28T07:52:08.379Z,16896.00
2019-02-28T07:53:08.842Z,18624.00
2019-02-28T07:54:08.395Z,17920.00
2019-02-28T07:55:08.341Z,16352.00
2019-02-28T07:56:08.332Z,16192.00
2019-02-28T07:57:08.358Z,17664.00
2019-02-28T07:58:08.310Z,16608.00
2019-02-28T07:59:08.767Z,15780.00
2019-02-28T08:00:08.297Z,17312.00
2019-02-28T08:01:08.280Z,18272.00
2019-02-28T08:02:08.278Z,17376.00
2019-02-28T08:03:11.306Z,17344.00
2019-02-28T08:04:08.269Z,19872.00
2019-02-28T08:05:08.267Z,21568.00
2019-02-28T08:06:08.232Z,25088.00
2019-02-28T08:07:08.229Z,23776.00
2019-02-28T08:08:08.214Z,22272.00
2019-02-28T08:09:08.189Z,19264.00
2019-02-28T08:10:08.358Z,17952.00
2019-02-28T08:11:08.218Z,14016.00
2019-02-28T08:12:08.163Z,14144.00
2019-02-28T08:13:08.150Z,13004.00
2019-02-28T08:14:09.186Z,10704.00
2019-02-28T08:15:22.339Z,8068.00
2019-02-28T08:16:08.135Z,7012.00
2019-02-28T08:17:08.904Z,6492.00
2019-02-28T08:18:08.109Z,6528.00
2019-02-28T08:19:08.088Z,6184.00
2019-02-28T08:20:08.089Z,6312.00
2019-02-28T08:21:08.724Z,6868.00
2019-02-28T08:22:08.047Z,7488.00
2019-02-28T08:23:08.056Z,7292.00
2019-02-28T08:24:08.028Z,6928.00
2019-02-28T08:25:08.774Z,6652.00
2019-02-28T08:26:08.004Z,6736.00
2019-02-28T08:27:08.015Z,6800.00
2019-02-28T08:28:07.982Z,6360.00
2019-02-28T08:29:11.543Z,6060.00
2019-02-28T08:30:07.964Z,6144.00
2019-02-28T08:31:07.947Z,6468.00
2019-02-28T08:32:08.259Z,6924.00
2019-02-28T08:33:07.939Z,8160.00
2019-02-28T08:34:07.914Z,9028.00
2019-02-28T08:35:07.908Z,8536.00
2019-02-28T08:36:11.649Z,7336.00
2019-02-28T08:37:07.885Z,6212.00
2019-02-28T08:38:07.900Z,5836.00
2019-02-28T08:39:08.858Z,5716.00
2019-02-28T08:40:07.850Z,5544.00
2019-02-28T08:41:07.844Z,5632.00
2019-02-28T08:42:07.835Z,6068.00
2019-02-28T08:43:10.480Z,6664.00
2019-02-28T08:44:08.844Z,7804.00
2019-02-28T08:45:07.798Z,8240.00
2019-02-28T08:46:19.008Z,8464.00
2019-02-28T08:47:07.810Z,9016.00
2019-02-28T08:48:07.774Z,9996.00
2019-02-28T08:49:07.783Z,10100.00
2019-02-28T08:50:07.793Z,9224.00
2019-02-28T08:51:07.796Z,8036.00
2019-02-28T08:52:07.718Z,7496.00
2019-02-28T08:53:07.710Z,6748.00
2019-02-28T08:54:07.702Z,6000.00
2019-02-28T08:55:09.227Z,5868.00
2019-02-28T08:56:07.724Z,6708.00
2019-02-28T08:57:07.668Z,6960.00
2019-02-28T08:58:07.664Z,6604.00
2019-02-28T08:59:11.726Z,5756.00
2019-02-28T09:00:07.651Z,5380.00
2019-02-28T09:01:07.630Z,5512.00
2019-02-28T09:02:07.626Z,5780.00
2019-02-28T09:03:07.605Z,6212.00
2019-02-28T09:04:07.598Z,7084.00
2019-02-28T09:05:07.589Z,8068.00
2019-02-28T09:06:07.630Z,7800.00
2019-02-28T09:07:07.737Z,7136.00
2019-02-28T09:08:07.548Z,6752.00
2019-02-28T09:09:07.539Z,6724.00
2019-02-28T09:10:11.800Z,7004.00
2019-02-28T09:11:08.522Z,7744.00
2019-02-28T09:12:07.544Z,8756.00
2019-02-28T09:13:08.822Z,10420.00
2019-02-28T09:14:07.514Z,10752.00
2019-02-28T09:15:07.472Z,9932.00
2019-02-28T09:16:07.468Z,8684.00
2019-02-28T09:17:18.575Z,7668.00
2019-02-28T09:18:07.498Z,7080.00
2019-02-28T09:19:07.488Z,6696.00
2019-02-28T09:20:10.470Z,6924.00
2019-02-28T09:21:07.412Z,6984.00
2019-02-28T09:22:07.415Z,7376.00
2019-02-28T09:23:07.412Z,8364.00
2019-02-28T09:24:09.410Z,9752.00
2019-02-28T09:25:08.565Z,11396.00
2019-02-28T09:26:07.362Z,13176.00
2019-02-28T09:27:07.356Z,15000.00
2019-02-28T09:28:10.233Z,14728.00
2019-02-28T09:29:08.325Z,15368.00
2019-02-28T09:30:07.318Z,15184.00
2019-02-28T09:31:07.325Z,14064.00
2019-02-28T09:32:10.244Z,12312.00
2019-02-28T09:33:08.294Z,10576.00
2019-02-28T09:34:09.188Z,9988.00
2019-02-28T09:35:12.279Z,9880.00
2019-02-28T09:36:08.289Z,9680.00
2019-02-28T09:37:07.245Z,9032.00
2019-02-28T09:38:13.000Z,8328.00
2019-02-28T09:39:08.214Z,7600.00
2019-02-28T09:40:07.205Z,7268.00
2019-02-28T09:41:07.195Z,7364.00
2019-02-28T09:42:07.204Z,7568.00
2019-02-28T09:43:07.178Z,7528.00
2019-02-28T09:44:07.221Z,7076.00
2019-02-28T09:45:07.860Z,7004.00
2019-02-28T09:46:09.033Z,7164.00
2019-02-28T09:47:07.132Z,7464.00
2019-02-28T09:48:17.387Z,7748.00
2019-02-28T09:49:12.035Z,7740.00
2019-02-28T09:50:08.125Z,7688.00
2019-02-28T09:51:07.087Z,7748.00
2019-02-28T09:52:07.341Z,7124.00
2019-02-28T09:53:07.134Z,6776.00
2019-02-28T09:54:07.061Z,6624.00
2019-02-28T09:55:07.048Z,6548.00
2019-02-28T09:56:09.435Z,6796.00
2019-02-28T09:57:07.028Z,6452.00
2019-02-28T09:58:07.019Z,6000.00
2019-02-28T09:59:07.271Z,6004.00
2019-02-28T10:00:11.630Z,6184.00
2019-02-28T10:01:07.978Z,5928.00
2019-02-28T10:02:08.385Z,5828.00
2019-02-28T10:03:06.969Z,5768.00
2019-02-28T10:04:06.952Z,5596.00
2019-02-28T10:05:07.555Z,5936.00
2019-02-28T10:06:06.930Z,6240.00
2019-02-28T10:07:06.958Z,6104.00
2019-02-28T10:08:07.170Z,6184.00
2019-02-28T10:09:08.746Z,6300.00
2019-02-28T10:10:06.884Z,6408.00
2019-02-28T10:11:06.989Z,6680.00
2019-02-28T10:12:07.817Z,6932.00
2019-02-28T10:13:06.851Z,7836.00
2019-02-28T10:14:06.843Z,8556.00
2019-02-28T10:15:07.490Z,8676.00
2019-02-28T10:16:06.817Z,8508.00
2019-02-28T10:17:06.844Z,8372.00
2019-02-28T10:18:06.796Z,8696.00
2019-02-28T10:19:17.330Z,9440.00
2019-02-28T10:20:06.779Z,9856.00
2019-02-28T10:21:06.770Z,9728.00
2019-02-28T10:22:06.758Z,9488.00
2019-02-28T10:23:06.796Z,9812.00
2019-02-28T10:24:06.735Z,10148.00
2019-02-28T10:25:07.182Z,9564.00
2019-02-28T10:26:06.741Z,8892.00
2019-02-28T10:27:06.708Z,8896.00
2019-02-28T10:28:06.705Z,9336.00
2019-02-28T10:29:07.531Z,9124.00
2019-02-28T10:30:06.668Z,9136.00
2019-02-28T10:31:06.687Z,9460.00
2019-02-28T10:32:08.991Z,9336.00
2019-02-28T10:33:06.642Z,8924.00
2019-02-28T10:34:06.665Z,8528.00
2019-02-28T10:35:06.655Z,7808.00
2019-02-28T10:36:09.340Z,7628.00
2019-02-28T10:37:07.590Z,7588.00
2019-02-28T10:38:06.594Z,7336.00
2019-02-28T10:39:08.870Z,7224.00
2019-02-28T10:40:06.560Z,7204.00
2019-02-28T10:41:06.591Z,7268.00
2019-02-28T10:42:06.548Z,7248.00
2019-02-28T10:43:06.533Z,7100.00
2019-02-28T10:44:06.522Z,7132.00
2019-02-28T10:45:07.191Z,7124.00
2019-02-28T10:46:06.506Z,7272.00
2019-02-28T10:47:06.534Z,7528.00
2019-02-28T10:48:06.481Z,7384.00
2019-02-28T10:49:06.541Z,7392.00
2019-02-28T10:50:16.910Z,7724.00
2019-02-28T10:51:13.938Z,7780.00
2019-02-28T10:52:07.538Z,7896.00
2019-02-28T10:53:06.434Z,8248.00
2019-02-28T10:54:06.417Z,8120.00
2019-02-28T10:55:06.423Z,7868.00
2019-02-28T10:56:06.393Z,7860.00
2019-02-28T10:57:07.069Z,8644.00
2019-02-28T10:58:06.410Z,9284.00
2019-02-28T10:59:06.366Z,9556.00
2019-02-28T11:00:06.340Z,10004.00
2019-02-28T11:01:08.656Z,9740.00
2019-02-28T11:02:06.325Z,8272.00
2019-02-28T11:03:06.315Z,7308.00
2019-02-28T11:04:07.406Z,7192.00
2019-02-28T11:05:07.973Z,7492.00
2019-02-28T11:06:06.279Z,8384.00
2019-02-28T11:07:06.264Z,9172.00
2019-02-28T11:08:06.255Z,10400.00
2019-02-28T11:09:06.253Z,9760.00
2019-02-28T11:10:06.257Z,9288.00
2019-02-28T11:11:07.425Z,9120.00
2019-02-28T11:12:06.211Z,9184.00
2019-02-28T11:13:06.211Z,9328.00
2019-02-28T11:14:06.190Z,9184.00
2019-02-28T11:15:06.191Z,9648.00
2019-02-28T11:16:06.176Z,9808.00
2019-02-28T11:17:11.351Z,9408.00
2019-02-28T11:18:09.669Z,9516.00
2019-02-28T11:19:09.884Z,9768.00
2019-02-28T11:20:06.125Z,9900.00
2019-02-28T11:21:16.888Z,10168.00
2019-02-28T11:22:13.103Z,10820.00
2019-02-28T11:23:07.608Z,11356.00
2019-02-28T11:24:06.087Z,10880.00
2019-02-28T11:25:06.091Z,9700.00
2019-02-28T11:26:06.486Z,9744.00
2019-02-28T11:27:06.101Z,9412.00
2019-02-28T11:28:06.058Z,8708.00
2019-02-28T11:29:06.037Z,8268.00
2019-02-28T11:30:07.472Z,7452.00
2019-02-28T11:31:06.012Z,7012.00
2019-02-28T11:32:06.001Z,6620.00
2019-02-28T11:33:06.036Z,5952.00
2019-02-28T11:34:05.983Z,5504.00
2019-02-28T11:35:05.967Z,4488.00
2019-02-28T11:36:07.438Z,4060.00
2019-02-28T11:37:08.942Z,3892.00
2019-02-28T11:38:05.939Z,3764.00
2019-02-28T11:39:05.942Z,3900.00
2019-02-28T11:40:08.481Z,4640.00
2019-02-28T11:41:05.905Z,4964.00
2019-02-28T11:42:05.893Z,5128.00
2019-02-28T11:43:05.884Z,5144.00
2019-02-28T11:44:05.910Z,4868.00
2019-02-28T11:45:05.856Z,4908.00
2019-02-28T11:46:05.853Z,5024.00
2019-02-28T11:47:08.326Z,5572.00
2019-02-28T11:48:06.821Z,6296.00
2019-02-28T11:49:05.817Z,6788.00
2019-02-28T11:50:07.675Z,7400.00
2019-02-28T11:51:05.794Z,7904.00
2019-02-28T11:52:05.779Z,7940.00
2019-02-28T11:53:16.527Z,7768.00
2019-02-28T11:54:05.758Z,8048.00
2019-02-28T11:55:05.753Z,7844.00
2019-02-28T11:56:05.775Z,7632.00
2019-02-28T11:57:06.798Z,7488.00
2019-02-28T11:58:05.717Z,7284.00
2019-02-28T11:59:05.708Z,6836.00
2019-02-28T12:00:05.706Z,6896.00
2019-02-28T12:01:12.972Z,6516.00
2019-02-28T12:02:05.695Z,6236.00
2019-02-28T12:03:05.970Z,6088.00
2019-02-28T12:04:05.660Z,5632.00
2019-02-28T12:05:05.653Z,5376.00
2019-02-28T12:06:06.911Z,5100.00
2019-02-28T12:07:05.661Z,5324.00
2019-02-28T12:08:09.350Z,5392.00
2019-02-28T12:09:05.598Z,5172.00
2019-02-28T12:10:05.593Z,5128.00
2019-02-28T12:11:05.577Z,4556.00
2019-02-28T12:12:07.271Z,4664.00
2019-02-28T12:13:05.599Z,4796.00
2019-02-28T12:14:06.341Z,4540.00
2019-02-28T12:15:06.106Z,4808.00
2019-02-28T12:16:05.526Z,5184.00
2019-02-28T12:17:05.520Z,5200.00
2019-02-28T12:18:07.352Z,5544.00
2019-02-28T12:19:05.551Z,5628.00
2019-02-28T12:20:05.530Z,5736.00
2019-02-28T12:21:05.470Z,5648.00
2019-02-28T12:22:05.460Z,5932.00
2019-02-28T12:23:05.452Z,6148.00
2019-02-28T12:24:05.436Z,6172.00
2019-02-28T12:25:07.551Z,6340.00
2019-02-28T12:26:05.431Z,6748.00
2019-02-28T12:27:05.409Z,7296.00
2019-02-28T12:28:06.642Z,7480.00
2019-02-28T12:29:05.418Z,7384.00
2019-02-28T12:30:05.390Z,7132.00
2019-02-28T12:31:05.381Z,6892.00